TimeEST,TemperatureF,Dew PointF,Humidity,Sea Level PressureIn,VisibilityMPH,Wind Direction,Wind SpeedMPH,Gust SpeedMPH,PrecipitationIn,Events,Conditions,WindDirDegrees,DateUTC
12:15 AM,15.8,-0.4,49,30.02,10.0,West,5.8,-,N/A,,Scattered Clouds,270,2013-02-02 05:15:00
12:35 AM,15.8,1.4,53,30.02,10.0,West,4.6,-,N/A,,Clear,260,2013-02-02 05:35:00
12:55 AM,15.8,1.4,53,30.02,10.0,WSW,8.1,-,N/A,,Clear,250,2013-02-02 05:55:00
1:15 AM,15.8,1.4,53,30.03,10.0,West,6.9,-,N/A,,Clear,260,2013-02-02 06:15:00
1:35 AM,15.8,1.4,53,30.04,10.0,WSW,6.9,-,N/A,,Clear,250,2013-02-02 06:35:00
2:15 AM,15.8,1.4,53,30.06,10.0,West,9.2,-,N/A,,Scattered Clouds,280,2013-02-02 07:15:00
2:35 AM,15.8,1.4,53,30.06,10.0,West,12.7,17.3,N/A,,Scattered Clouds,270,2013-02-02 07:35:00
2:55 AM,14.0,1.4,57,30.07,10.0,West,11.5,17.3,N/A,,Clear,280,2013-02-02 07:55:00
3:15 AM,12.2,1.4,62,30.07,10.0,West,10.4,17.3,N/A,,Clear,260,2013-02-02 08:15:00
3:35 AM,12.2,-0.4,57,30.08,10.0,WSW,9.2,-,N/A,,Clear,250,2013-02-02 08:35:00
3:55 AM,12.2,-0.4,57,30.08,10.0,West,9.2,-,N/A,,Clear,260,2013-02-02 08:55:00
4:35 AM,12.2,-0.4,57,30.10,10.0,West,6.9,-,N/A,,Clear,260,2013-02-02 09:35:00
4:55 AM,12.2,-0.4,57,30.10,10.0,WSW,5.8,-,N/A,,Clear,250,2013-02-02 09:55:00
5:15 AM,10.4,-0.4,62,30.11,10.0,WSW,8.1,-,N/A,,Clear,250,2013-02-02 10:15:00
5:35 AM,12.2,-0.4,57,30.11,10.0,West,6.9,-,N/A,,Clear,270,2013-02-02 10:35:00
5:55 AM,12.2,-0.4,57,30.12,10.0,West,11.5,-,N/A,,Clear,260,2013-02-02 10:55:00
6:15 AM,12.2,-0.4,57,30.12,10.0,West,6.9,-,N/A,,Clear,270,2013-02-02 11:15:00
6:55 AM,10.4,-0.4,62,30.13,10.0,West,3.5,-,N/A,,Clear,280,2013-02-02 11:55:00
7:15 AM,10.4,-0.4,62,30.13,10.0,West,3.5,-,N/A,,Clear,270,2013-02-02 12:15:00
7:35 AM,10.4,-0.4,62,30.14,10.0,Calm,Calm,-,N/A,,Clear,0,2013-02-02 12:35:00
7:55 AM,12.2,1.4,62,30.15,10.0,SW,6.9,-,N/A,,Clear,230,2013-02-02 12:55:00
8:15 AM,12.2,1.4,62,30.15,10.0,WSW,5.8,-,N/A,,Clear,240,2013-02-02 13:15:00
8:35 AM,12.2,1.4,62,30.15,10.0,SW,6.9,-,N/A,,Clear,220,2013-02-02 13:35:00
9:15 AM,14.0,1.4,57,30.15,10.0,SW,5.8,-,N/A,,Clear,230,2013-02-02 14:15:00
9:35 AM,15.8,3.2,58,30.15,10.0,SSW,9.2,-,N/A,,Clear,210,2013-02-02 14:35:00
9:55 AM,15.8,1.4,53,30.15,10.0,SW,4.6,-,N/A,,Clear,230,2013-02-02 14:55:00
10:15 AM,17.6,3.2,53,30.14,10.0,SW,10.4,-,N/A,,Clear,230,2013-02-02 15:15:00
10:35 AM,17.6,3.2,53,30.14,10.0,WSW,9.2,-,N/A,,Clear,250,2013-02-02 15:35:00
10:55 AM,17.6,1.4,49,30.13,10.0,SW,8.1,-,N/A,,Clear,220,2013-02-02 15:55:00
11:15 AM,19.4,3.2,49,30.12,10.0,SW,11.5,-,N/A,,Partly Cloudy,230,2013-02-02 16:15:00
11:55 AM,19.4,1.4,46,30.10,10.0,SW,10.4,-,N/A,,Clear,220,2013-02-02 16:55:00
12:15 PM,21.2,1.4,42,30.09,10.0,WSW,8.1,-,N/A,,Partly Cloudy,240,2013-02-02 17:15:00
12:35 PM,21.2,1.4,42,30.08,10.0,SSW,9.2,-,N/A,,Scattered Clouds,210,2013-02-02 17:35:00
12:55 PM,21.2,1.4,42,30.07,10.0,SW,8.1,-,N/A,,Clear,230,2013-02-02 17:55:00
1:15 PM,21.2,1.4,42,30.07,10.0,West,6.9,-,N/A,,Clear,260,2013-02-02 18:15:00
1:35 PM,21.2,1.4,42,30.06,10.0,WSW,11.5,-,N/A,,Clear,240,2013-02-02 18:35:00
1:55 PM,21.2,1.4,42,30.05,10.0,SSW,9.2,-,N/A,,Clear,210,2013-02-02 18:55:00
2:15 PM,23.0,1.4,39,30.05,10.0,South,9.2,-,N/A,,Clear,190,2013-02-02 19:15:00
2:35 PM,23.0,1.4,39,30.04,10.0,SW,9.2,-,N/A,,Mostly Cloudy,220,2013-02-02 19:35:00
2:55 PM,23.0,3.2,43,30.04,10.0,SW,8.1,18.4,N/A,,Overcast,230,2013-02-02 19:55:00
3:15 PM,23.0,3.2,43,30.03,10.0,South,6.9,16.1,N/A,,Overcast,180,2013-02-02 20:15:00
3:35 PM,23.0,3.2,43,30.03,10.0,SSW,4.6,-,N/A,,Overcast,210,2013-02-02 20:35:00
3:55 PM,23.0,3.2,43,30.03,10.0,SSW,6.9,-,N/A,,Overcast,200,2013-02-02 20:55:00
4:15 PM,23.0,3.2,43,30.02,10.0,Calm,Calm,-,N/A,,Overcast,0,2013-02-02 21:15:00
4:35 PM,23.0,3.2,43,30.02,10.0,South,4.6,-,N/A,,Overcast,180,2013-02-02 21:35:00
4:55 PM,23.0,5.0,46,30.02,10.0,Calm,Calm,-,N/A,,Mostly Cloudy,0,2013-02-02 21:55:00
5:15 PM,21.2,6.8,54,30.01,10.0,SW,4.6,-,N/A,,Scattered Clouds,230,2013-02-02 22:15:00
5:35 PM,21.2,6.8,54,30.01,10.0,Calm,Calm,-,N/A,,Mostly Cloudy,0,2013-02-02 22:35:00
5:55 PM,21.2,8.6,58,30.02,10.0,Calm,Calm,-,N/A,,Overcast,0,2013-02-02 22:55:00
6:15 PM,21.2,8.6,58,30.02,10.0,Calm,Calm,-,N/A,,Mostly Cloudy,0,2013-02-02 23:15:00
6:55 PM,21.2,8.6,58,30.01,10.0,Calm,Calm,-,N/A,,Overcast,0,2013-02-02 23:55:00
7:15 PM,21.2,8.6,58,30.01,10.0,Calm,Calm,-,N/A,,Overcast,0,2013-02-03 00:15:00
7:35 PM,21.2,8.6,58,30.01,10.0,NNE,3.5,-,N/A,,Overcast,30,2013-02-03 00:35:00
7:55 PM,21.2,10.4,63,30.01,10.0,NE,4.6,-,N/A,,Overcast,40,2013-02-03 00:55:00
8:15 PM,21.2,8.6,58,30.01,10.0,NNE,3.5,-,N/A,,Overcast,20,2013-02-03 01:15:00
8:35 PM,21.2,8.6,58,30.00,10.0,NE,4.6,-,N/A,,Overcast,40,2013-02-03 01:35:00
8:55 PM,21.2,10.4,63,30.00,10.0,North,3.5,-,N/A,,Overcast,10,2013-02-03 01:55:00
9:15 PM,21.2,10.4,63,30.01,10.0,NW,3.5,-,N/A,,Overcast,320,2013-02-03 02:15:00
9:35 PM,-9999,-9999,N/A,30.00,10.0,Calm,Calm,-,N/A,,Overcast,0,2013-02-03 02:35:00
9:55 PM,21.2,10.4,63,30.00,10.0,Calm,Calm,-,N/A,,Overcast,0,2013-02-03 02:55:00
10:15 PM,19.4,12.2,74,30.00,10.0,Calm,Calm,-,N/A,,Overcast,0,2013-02-03 03:15:00
10:35 PM,19.4,12.2,74,30.00,10.0,Calm,Calm,-,N/A,,Overcast,0,2013-02-03 03:35:00
10:55 PM,19.4,12.2,74,29.99,10.0,Calm,Calm,-,N/A,,Overcast,0,2013-02-03 03:55:00
11:15 PM,19.4,12.2,74,29.99,10.0,Calm,Calm,-,N/A,,Overcast,0,2013-02-03 04:15:00
11:35 PM,19.4,12.2,74,30.00,10.0,Calm,Calm,-,N/A,,Overcast,0,2013-02-03 04:35:00
11:55 PM,19.4,12.2,74,30.00,10.0,Calm,Calm,-,N/A,,Overcast,0,2013-02-03 04:55:00